Time;durP1;ratioP1;P1;durP2;ratioP2;P2;SDS_P1;SDS_P2;PMS_P1;PMS_P2;Temp;Humidity;BMP_temperature;BMP_pressure;BME280_temperature;BME280_humidity;BME280_pressure;Samples;Min_cycle;Max_cycle;Signal;HPM_P1;HPM_P2
2022/07/20 00:01:17;;;;;;;4.37;3.77;;;;;;;21.58;51.28;98129.03;5070095;28;20211;-70
2022/07/20 00:03:45;;;;;;;5.73;4.33;;;;;;;21.50;51.38;98134.41;5067412;28;20223;-70
2022/07/20 00:06:12;;;;;;;5.87;4.17;;;;;;;21.40;52.15;98129.25;5070975;28;20634;-70
2022/07/20 00:11:24;;;;;;;5.13;4.20;;;;;;;21.28;52.42;98130.63;5066268;28;20277;-70
2022/07/20 00:13:56;;;;;;;7.03;4.23;;;;;;;21.22;52.80;98131.31;5069635;28;20212;-70
2022/07/20 00:16:24;;;;;;;5.40;3.67;;;;;;;21.17;52.84;98122.09;5070805;28;20303;-71
2022/07/20 00:18:51;;;;;;;5.60;4.00;;;;;;;21.17;52.50;98122.97;5070583;28;20219;-71
2022/07/20 00:21:18;;;;;;;5.67;4.17;;;;;;;21.18;52.72;98126.47;5067185;28;20714;-70
2022/07/20 00:23:45;;;;;;;4.53;4.10;;;;;;;21.19;52.36;98122.75;5070253;28;20219;-71
2022/07/20 00:26:11;;;;;;;6.23;3.80;;;;;;;21.21;52.21;98126.97;5070722;28;20211;-71
2022/07/20 00:28:39;;;;;;;5.03;3.73;;;;;;;21.22;52.73;98128.63;5070319;28;20719;-71
2022/07/20 00:31:06;;;;;;;4.47;3.80;;;;;;;21.20;53.05;98127.97;5067312;28;20682;-71
2022/07/20 00:33:33;;;;;;;5.10;4.10;;;;;;;21.12;53.33;98111.88;5069689;28;20211;-70
2022/07/20 00:36:00;;;;;;;5.67;3.73;;;;;;;21.05;53.48;98110.91;5068872;28;20237;-71
2022/07/20 00:38:26;;;;;;;4.20;3.80;;;;;;;21.04;53.20;98108.38;5067147;28;20222;-70
2022/07/20 00:40:53;;;;;;;4.43;4.03;;;;;;;21.00;53.70;98113.25;5067439;28;20697;-70
2022/07/20 00:43:19;;;;;;;4.53;3.90;;;;;;;20.94;54.27;98107.72;5069136;28;20215;-68
2022/07/20 00:45:47;;;;;;;4.97;3.70;;;;;;;20.92;54.34;98121.31;5070060;28;20226;-70
2022/07/20 00:48:14;;;;;;;4.17;3.77;;;;;;;20.93;54.54;98117.63;5070276;28;20241;-71
2022/07/20 00:50:41;;;;;;;4.07;3.70;;;;;;;20.90;54.52;98119.81;5067803;28;20572;-68
2022/07/20 00:53:08;;;;;;;4.87;4.07;;;;;;;20.88;54.66;98122.69;5068289;28;20208;-69
2022/07/20 00:55:34;;;;;;;4.27;3.87;;;;;;;20.85;54.93;98116.78;5070019;28;20243;-70
2022/07/20 00:58:01;;;;;;;4.63;3.83;;;;;;;20.81;55.41;98116.28;5070127;28;20245;-70
2022/07/20 01:00:28;;;;;;;4.27;3.80;;;;;;;20.77;55.98;98117.63;5067264;28;20669;-70
2022/07/20 01:02:55;;;;;;;3.67;3.30;;;;;;;20.74;57.12;98117.97;5066201;28;20219;-70
2022/07/20 01:05:24;;;;;;;7.10;4.00;;;;;;;20.68;57.98;98126.69;5069554;28;20212;-70
2022/07/20 01:07:51;;;;;;;4.87;3.90;;;;;;;20.70;58.19;98130.06;5068849;28;20235;-70
2022/07/20 01:10:18;;;;;;;5.37;3.83;;;;;;;20.72;57.64;98128.03;5067643;28;20216;-70
2022/07/20 01:12:48;;;;;;;4.23;3.83;;;;;;;20.71;57.95;98126.34;5067708;28;20220;-70
2022/07/20 01:15:14;;;;;;;5.40;3.93;;;;;;;20.68;57.90;98124.03;5069468;28;20218;-70
2022/07/20 01:17:41;;;;;;;3.97;3.57;;;;;;;20.64;58.38;98125.34;5069831;28;20568;-70
2022/07/20 01:20:14;;;;;;;4.80;3.90;;;;;;;20.61;59.32;98124.84;5067431;28;20215;-70
2022/07/20 01:22:42;;;;;;;6.00;3.93;;;;;;;20.62;58.89;98119.31;5068325;28;20223;-70
2022/07/20 01:25:09;;;;;;;6.33;4.43;;;;;;;20.70;57.24;98116.63;5069613;28;20215;-70
2022/07/20 01:27:35;;;;;;;5.53;4.13;;;;;;;20.77;56.83;98125.69;5068578;28;20723;-70
2022/07/20 01:30:02;;;;;;;5.53;4.00;;;;;;;20.81;56.58;98127.03;5065477;28;20214;-70
2022/07/20 01:32:29;;;;;;;5.33;3.67;;;;;;;20.81;56.77;98126.16;5068139;28;20216;-70
2022/07/20 01:34:55;;;;;;;5.43;3.97;;;;;;;20.82;57.10;98123.31;5069380;28;20215;-70
2022/07/20 01:37:22;;;;;;;5.90;4.30;;;;;;;20.83;57.25;98124.16;5059667;28;20215;-70
2022/07/20 01:39:49;;;;;;;4.20;3.80;;;;;;;20.73;57.45;98118.94;5065555;28;20211;-69
2022/07/20 01:42:16;;;;;;;5.70;4.33;;;;;;;20.68;57.66;98126.69;5067525;28;20216;-69
2022/07/20 01:44:42;;;;;;;5.03;4.00;;;;;;;20.65;57.95;98120.81;5069208;28;20215;-69
2022/07/20 01:47:09;;;;;;;4.50;3.97;;;;;;;20.66;57.72;98120.63;5068827;28;20726;-69
2022/07/20 01:49:35;;;;;;;5.27;4.00;;;;;;;20.64;57.41;98117.28;5067546;28;20244;-69
2022/07/20 01:52:02;;;;;;;5.33;4.07;;;;;;;20.60;57.75;98112.44;5066582;28;20677;-69
2022/07/20 01:54:29;;;;;;;7.17;4.30;;;;;;;20.49;58.52;98116.28;5067134;28;20220;-69
2022/07/20 01:56:56;;;;;;;4.33;3.93;;;;;;;20.35;59.20;98116.94;5069062;28;20215;-69
2022/07/20 01:59:23;;;;;;;5.50;4.40;;;;;;;20.23;60.43;98120.97;5067875;28;20223;-69
2022/07/20 02:01:49;;;;;;;5.77;3.97;;;;;;;20.17;61.29;98123.50;5066497;28;20218;-70
2022/07/20 02:04:16;;;;;;;4.57;3.90;;;;;;;20.14;61.20;98124.66;5069231;28;20217;-70
2022/07/20 02:06:42;;;;;;;4.90;4.37;;;;;;;20.12;60.88;98123.97;5069237;28;20592;-69
2022/07/20 02:09:09;;;;;;;6.60;4.50;;;;;;;20.09;60.31;98121.63;5067848;28;20731;-69
2022/07/20 02:11:36;;;;;;;4.83;3.90;;;;;;;20.05;60.50;98122.91;5065649;28;20223;-69
2022/07/20 02:14:04;;;;;;;4.93;4.03;;;;;;;20.02;60.81;98123.28;5068850;28;20215;-69
2022/07/20 02:16:31;;;;;;;5.07;4.27;;;;;;;20.01;62.18;98121.59;5069006;28;20212;-69
2022/07/20 02:18:57;;;;;;;4.60;4.20;;;;;;;19.98;62.17;98115.69;5067874;28;20669;-69
2022/07/20 02:21:24;;;;;;;5.27;4.40;;;;;;;19.97;63.33;98120.22;5063645;28;20244;-68
2022/07/20 02:23:52;;;;;;;7.03;4.37;;;;;;;19.92;64.26;98111.84;5068977;28;20237;-68
2022/07/20 02:26:20;;;;;;;6.40;5.33;;;;;;;19.92;64.52;98122.56;5068987;28;20259;-68
2022/07/20 02:28:46;;;;;;;6.70;5.53;;;;;;;19.96;63.14;98121.25;5068232;28;20241;-68
2022/07/20 02:31:14;;;;;;;7.17;5.33;;;;;;;20.04;62.29;98118.56;5065208;28;20216;-69
2022/07/20 02:33:41;;;;;;;7.70;5.43;;;;;;;20.20;61.39;98115.94;5068463;28;21146;-69
2022/07/20 02:36:08;;;;;;;7.43;6.33;;;;;;;20.30;60.72;98115.78;5068397;28;20676;-68
2022/07/20 02:38:35;;;;;;;7.27;5.60;;;;;;;20.35;60.61;98119.63;5064961;28;20677;-69
2022/07/20 02:41:01;;;;;;;7.43;5.80;;;;;;;20.43;60.38;98119.63;5064638;28;20222;-69
2022/07/20 02:43:28;;;;;;;7.80;6.20;;;;;;;20.39;60.40;98115.63;5068657;28;20212;-69
2022/07/20 02:45:54;;;;;;;7.67;6.20;;;;;;;20.47;60.16;98115.63;5066726;28;20234;-68
2022/07/20 02:48:22;;;;;;;6.67;5.63;;;;;;;20.53;60.05;98116.78;5068610;28;20237;-69
2022/07/20 02:50:49;;;;;;;7.07;5.47;;;;;;;20.51;60.61;98114.28;5060935;28;20297;-69
2022/07/20 02:53:16;;;;;;;6.03;5.20;;;;;;;20.41;61.42;98112.78;5068535;28;20218;-69
2022/07/20 02:55:44;;;;;;;6.60;5.13;;;;;;;20.28;62.72;98123.16;5068512;28;20220;-69
2022/07/20 02:58:11;;;;;;;7.10;5.40;;;;;;;20.12;63.32;98123.97;5068510;28;20215;-69
2022/07/20 03:00:38;;;;;;;6.23;5.53;;;;;;;19.98;64.76;98121.91;5064730;28;20212;-69
2022/07/20 03:03:05;;;;;;;6.53;5.90;;;;;;;19.83;65.75;98128.94;5052566;28;20216;-68
2022/07/20 03:05:33;;;;;;;7.30;5.60;;;;;;;19.64;67.03;98128.34;5060050;28;20216;-68
2022/07/20 03:08:00;;;;;;;6.47;5.87;;;;;;;19.51;67.22;98120.75;5057701;28;20240;-69
2022/07/20 03:10:27;;;;;;;6.73;5.57;;;;;;;19.45;66.83;98126.75;5064638;28;20234;-69
2022/07/20 03:12:53;;;;;;;6.17;5.40;;;;;;;19.38;67.47;98123.03;5066145;28;20237;-68
2022/07/20 03:15:20;;;;;;;6.03;5.43;;;;;;;19.32;67.75;98120.19;5068367;28;20216;-69
2022/07/20 03:17:48;;;;;;;5.70;5.10;;;;;;;19.28;67.57;98118.81;5068047;28;20215;-69
2022/07/20 03:20:20;;;;;;;5.93;5.30;;;;;;;19.25;67.33;98128.00;5064724;28;20243;-69
2022/07/20 03:22:49;;;;;;;6.03;5.20;;;;;;;19.22;67.98;98122.13;5044490;28;20657;-68
2022/07/20 03:25:15;;;;;;;5.53;4.93;;;;;;;19.17;68.41;98124.41;5068380;28;20215;-68
2022/07/20 03:27:42;;;;;;;6.70;5.40;;;;;;;19.13;69.23;98123.06;5068219;28;20262;-70
2022/07/20 03:30:09;;;;;;;6.63;5.33;;;;;;;19.11;69.73;98125.91;5060606;28;20212;-70
2022/07/20 03:32:36;;;;;;;6.30;5.70;;;;;;;19.09;69.45;98132.41;5071378;28;20695;-70
2022/07/20 03:35:03;;;;;;;8.20;5.17;;;;;;;19.05;69.67;98128.38;5071762;28;20211;-70
2022/07/20 03:37:29;;;;;;;5.90;5.30;;;;;;;19.01;69.54;98125.16;5061218;28;20208;-70
2022/07/20 03:39:57;;;;;;;7.30;5.20;;;;;;;18.99;69.85;98126.31;5066121;28;20220;-70
2022/07/20 03:42:24;;;;;;;7.57;5.27;;;;;;;18.96;69.36;98124.78;5071365;28;20215;-69
2022/07/20 03:44:50;;;;;;;6.00;5.37;;;;;;;18.92;70.14;98130.63;5071333;28;20221;-69
2022/07/20 03:47:17;;;;;;;5.83;4.97;;;;;;;18.90;69.46;98130.78;5071538;28;20211;-69
2022/07/20 03:49:43;;;;;;;7.53;4.90;;;;;;;18.94;68.59;98131.31;5068023;28;20727;-70
2022/07/20 03:52:10;;;;;;;7.30;5.40;;;;;;;18.94;68.64;98128.63;5070298;28;20216;-69
2022/07/20 03:54:36;;;;;;;5.47;4.97;;;;;;;18.88;69.30;98123.91;5071350;28;20211;-70
2022/07/20 03:57:04;;;;;;;5.90;5.30;;;;;;;18.78;71.05;98124.00;5071413;28;20217;-70
2022/07/20 03:59:32;;;;;;;5.63;5.00;;;;;;;18.69;71.41;98124.09;5068635;28;20211;-69
2022/07/20 04:01:58;;;;;;;5.80;5.20;;;;;;;18.60;71.69;98123.19;5070040;28;20219;-69
2022/07/20 04:04:25;;;;;;;6.50;5.03;;;;;;;18.60;71.71;98125.88;5069569;28;20211;-69
2022/07/20 04:06:51;;;;;;;6.50;5.33;;;;;;;18.63;71.77;98127.41;5071061;28;20211;-69
2022/07/20 04:09:43;;;;;;;8.37;5.07;;;;;;;18.58;72.33;98117.16;5068808;28;20585;-69
2022/07/20 04:12:07;;;;;;;8.13;5.60;;;;;;;18.55;73.01;98120.19;5049020;28;20211;-69
2022/07/20 04:14:34;;;;;;;7.17;5.10;;;;;;;18.52;73.21;98127.69;5071182;28;20222;-69
2022/07/20 04:17:00;;;;;;;8.00;5.47;;;;;;;18.56;73.42;98124.53;5069872;28;20680;-69
2022/07/20 04:19:27;;;;;;;6.30;5.23;;;;;;;18.58;73.99;98130.56;5055066;28;20234;-69
2022/07/20 04:21:54;;;;;;;6.40;5.20;;;;;;;18.62;74.25;98134.63;5058116;28;20239;-68
2022/07/20 04:24:21;;;;;;;6.97;5.13;;;;;;;18.65;74.24;98134.28;5063689;28;20218;-69
2022/07/20 04:26:47;;;;;;;6.27;4.70;;;;;;;18.67;74.74;98132.31;5069943;28;20219;-69
2022/07/20 04:29:15;;;;;;;7.40;4.77;;;;;;;18.70;74.41;98132.00;5067410;28;20232;-69
2022/07/20 04:31:42;;;;;;;5.77;4.90;;;;;;;18.71;74.59;98136.34;5069155;28;20223;-69
2022/07/20 04:34:08;;;;;;;7.90;5.50;;;;;;;18.73;74.46;98137.03;5070486;28;20714;-68
2022/07/20 04:36:35;;;;;;;5.67;4.67;;;;;;;18.75;74.63;98134.19;5067563;28;20214;-69
2022/07/20 04:39:01;;;;;;;8.33;4.40;;;;;;;18.82;74.51;98141.44;5066938;28;20243;-70
2022/07/20 04:41:27;;;;;;;5.77;4.87;;;;;;;18.87;74.46;98144.50;5070478;28;20211;-69
2022/07/20 04:43:54;;;;;;;7.30;4.87;;;;;;;18.93;74.25;98143.88;5070262;28;20778;-69
2022/07/20 04:46:23;;;;;;;6.73;4.90;;;;;;;18.99;73.83;98148.59;5070414;28;20222;-69
2022/07/20 04:48:49;;;;;;;5.90;4.83;;;;;;;19.04;74.13;98140.94;5058342;28;20250;-68
2022/07/20 04:51:16;;;;;;;5.80;5.00;;;;;;;19.31;73.18;98137.25;5070051;28;20223;-68
2022/07/20 04:53:43;;;;;;;5.30;4.77;;;;;;;19.96;70.81;98140.03;5070377;28;20211;-67
2022/07/20 04:56:10;;;;;;;6.30;4.80;;;;;;;20.10;70.90;98141.22;5068437;28;20242;-68
2022/07/20 04:58:37;;;;;;;6.13;5.10;;;;;;;19.99;71.77;98150.41;5066789;28;20265;-67
2022/07/20 05:01:03;;;;;;;5.80;5.20;;;;;;;19.95;72.20;98140.19;5069825;28;20210;-68
2022/07/20 05:03:31;;;;;;;6.77;5.07;;;;;;;19.97;72.89;98139.00;5070051;28;20215;-68
2022/07/20 05:05:57;;;;;;;5.87;5.13;;;;;;;20.06;72.72;98137.22;5069741;28;20212;-68
2022/07/20 05:08:24;;;;;;;7.13;5.00;;;;;;;20.14;72.21;98138.06;5066674;28;20232;-69
2022/07/20 05:10:50;;;;;;;8.07;5.80;;;;;;;20.30;71.81;98126.53;5068642;28;20217;-69
2022/07/20 05:13:17;;;;;;;8.27;6.13;;;;;;;20.47;71.24;98128.22;5069706;28;20222;-69
2022/07/20 05:15:43;;;;;;;7.33;5.90;;;;;;;20.68;70.02;98126.69;5069442;28;20212;-69
2022/07/20 05:18:10;;;;;;;9.83;6.47;;;;;;;21.07;68.91;98133.03;5058025;28;20690;-70
2022/07/20 05:20:38;;;;;;;9.10;5.73;;;;;;;21.83;64.96;98130.63;5054534;28;20335;-69
2022/07/20 05:23:05;;;;;;;8.77;6.53;;;;;;;22.79;60.56;98128.09;5066087;28;20213;-69
2022/07/20 05:25:32;;;;;;;6.63;5.50;;;;;;;23.72;57.04;98132.00;5068187;28;20214;-68
2022/07/20 05:27:58;;;;;;;7.43;5.23;;;;;;;24.47;53.55;98134.19;5065934;28;20262;-69
2022/07/20 05:30:25;;;;;;;6.50;5.53;;;;;;;25.18;51.60;98136.69;5066198;28;20220;-68
2022/07/20 05:32:51;;;;;;;7.40;5.67;;;;;;;25.66;49.79;98135.75;5068177;28;20216;-68
2022/07/20 05:35:18;;;;;;;7.57;5.60;;;;;;;26.40;47.99;98129.41;5067641;28;20226;-69
2022/07/20 05:37:45;;;;;;;6.10;5.47;;;;;;;27.14;46.41;98144.53;5055370;28;20582;-69
2022/07/20 05:40:13;;;;;;;6.97;5.22;;;;;;;27.80;44.52;98135.25;5065600;28;20212;-69
2022/07/20 05:42:39;;;;;;;6.40;5.05;;;;;;;28.35;43.09;98140.03;5067862;28;20220;-69
2022/07/20 05:45:07;;;;;;;6.38;5.18;;;;;;;28.86;42.08;98146.25;5067510;28;20744;-69
2022/07/20 05:47:33;;;;;;;8.35;4.97;;;;;;;29.36;40.91;98146.06;5066458;28;20207;-69
2022/07/20 05:50:00;;;;;;;5.38;4.82;;;;;;;29.83;40.33;98150.00;5063655;28;20247;-69
2022/07/20 05:52:26;;;;;;;8.18;5.55;;;;;;;30.16;39.24;98153.19;5067691;28;20226;-69
2022/07/20 05:54:54;;;;;;;8.80;5.55;;;;;;;30.47;39.18;98152.97;5066971;28;20632;-69
2022/07/20 05:57:20;;;;;;;9.68;5.43;;;;;;;30.74;37.73;98151.59;5066425;28;20219;-69
2022/07/20 05:59:47;;;;;;;7.00;5.10;;;;;;;31.09;37.69;98160.66;5064957;28;20674;-68
2022/07/20 06:02:13;;;;;;;7.20;5.35;;;;;;;31.36;36.89;98159.19;5067381;28;20215;-69
2022/07/20 06:04:40;;;;;;;6.80;4.82;;;;;;;31.59;36.88;98157.28;5067740;28;20211;-69
2022/07/20 06:07:06;;;;;;;8.90;5.03;;;;;;;31.57;36.77;98164.06;5066694;28;20223;-69
2022/07/20 06:09:33;;;;;;;5.22;4.50;;;;;;;31.53;36.93;98171.09;5064280;28;20259;-68
2022/07/20 06:12:01;;;;;;;9.63;5.20;;;;;;;31.64;36.02;98176.53;5067540;28;20226;-68
2022/07/20 06:14:27;;;;;;;6.82;5.30;;;;;;;31.84;36.17;98168.03;5067558;28;20222;-68
2022/07/20 06:16:54;;;;;;;6.55;5.07;;;;;;;32.03;35.72;98170.34;5065421;28;20673;-70
2022/07/20 06:19:20;;;;;;;6.60;4.45;;;;;;;32.37;35.80;98166.72;5063703;28;20215;-69
2022/07/20 06:21:47;;;;;;;6.28;4.50;;;;;;;32.65;35.08;98177.66;5067567;28;20269;-69
2022/07/20 06:24:14;;;;;;;7.97;4.68;;;;;;;32.57;34.67;98172.59;5067430;28;20219;-69
2022/07/20 06:26:40;;;;;;;4.78;4.38;;;;;;;32.62;34.40;98174.59;5067441;28;20225;-69
2022/07/20 06:29:08;;;;;;;7.22;4.85;;;;;;;32.79;33.94;98187.31;5059861;28;20243;-69
2022/07/20 06:31:35;;;;;;;5.95;5.15;;;;;;;33.02;33.31;98183.59;5043136;28;20696;-68
2022/07/20 06:34:02;;;;;;;6.45;4.65;;;;;;;33.20;33.45;98191.59;5067433;28;20207;-69
2022/07/20 06:36:29;;;;;;;7.85;4.90;;;;;;;33.41;32.85;98188.13;5065404;28;20256;-70
2022/07/20 06:38:55;;;;;;;5.45;4.40;;;;;;;33.58;32.87;98187.06;5063977;28;20211;-68
2022/07/20 06:41:22;;;;;;;8.07;4.50;;;;;;;33.46;33.85;98186.31;5065919;28;20211;-68
2022/07/20 06:43:48;;;;;;;5.93;4.93;;;;;;;32.95;33.79;98197.44;5067236;28;20215;-68
2022/07/20 06:46:16;;;;;;;9.50;4.95;;;;;;;32.68;33.80;98190.88;5061035;28;20221;-69
2022/07/20 06:48:43;;;;;;;7.13;4.30;;;;;;;32.71;33.77;98186.84;5031618;28;20239;-69
2022/07/20 06:51:10;;;;;;;6.78;4.68;;;;;;;32.80;34.37;98190.84;5064235;28;20699;-69
2022/07/20 06:53:36;;;;;;;6.25;4.53;;;;;;;32.87;33.99;98186.91;5061081;28;20223;-70
2022/07/20 06:56:03;;;;;;;8.82;4.88;;;;;;;32.95;34.04;98193.88;5052559;28;20208;-69
2022/07/20 06:58:30;;;;;;;6.47;4.68;;;;;;;32.99;33.80;98195.03;5048757;28;20231;-69
2022/07/20 07:00:56;;;;;;;6.10;4.80;;;;;;;32.91;33.60;98185.34;5066650;28;20676;-68
2022/07/20 07:03:24;;;;;;;5.80;4.65;;;;;;;32.76;34.28;98189.69;5065694;28;20215;-68
2022/07/20 07:05:51;;;;;;;5.43;4.25;;;;;;;32.41;35.21;98189.81;5068160;28;20212;-69
2022/07/20 07:08:17;;;;;;;5.75;4.40;;;;;;;31.57;36.76;98188.66;5066437;28;20579;-70
2022/07/20 07:10:44;;;;;;;7.10;4.50;;;;;;;30.41;38.67;98189.34;5068951;28;20242;-69
2022/07/20 07:13:10;;;;;;;5.43;4.28;;;;;;;29.53;39.87;98192.66;5070532;28;20707;-69
2022/07/20 07:15:37;;;;;;;6.07;4.80;;;;;;;28.92;40.45;98186.19;5070100;28;20293;-70
2022/07/20 07:18:05;;;;;;;5.30;4.70;;;;;;;28.61;41.63;98194.34;5067813;28;20219;-68
2022/07/20 07:20:33;;;;;;;5.93;4.30;;;;;;;28.41;42.40;98201.75;5068480;28;20244;-68
2022/07/20 07:23:00;;;;;;;5.70;5.00;;;;;;;28.22;42.67;98194.47;5069779;28;20912;-69
2022/07/20 07:25:26;;;;;;;6.53;5.03;;;;;;;28.16;43.18;98206.22;5068885;28;20215;-68
2022/07/20 07:27:53;;;;;;;7.05;5.45;;;;;;;28.13;43.55;98190.34;5067861;28;20207;-69
2022/07/20 07:30:19;;;;;;;5.85;5.20;;;;;;;28.10;44.22;98180.75;5068893;28;20232;-70
2022/07/20 07:32:46;;;;;;;7.22;5.00;;;;;;;28.12;44.30;98180.53;5069521;28;20245;-69
2022/07/20 07:35:12;;;;;;;6.18;5.50;;;;;;;28.19;44.79;98178.63;5068174;28;20211;-68
2022/07/20 07:37:40;;;;;;;8.18;5.57;;;;;;;28.20;44.27;98167.50;5058689;28;20583;-68
2022/07/20 07:40:08;;;;;;;7.03;5.40;;;;;;;28.22;43.88;98172.72;5067403;28;20623;-69
2022/07/20 07:42:35;;;;;;;6.70;5.65;;;;;;;28.23;43.66;98171.69;5070014;28;20443;-69
2022/07/20 07:45:06;;;;;;;7.70;5.60;;;;;;;28.27;44.37;98162.03;5070226;28;20211;-69
2022/07/20 07:47:33;;;;;;;6.10;5.35;;;;;;;28.36;44.24;98164.31;5067333;28;20215;-69
2022/07/20 07:49:59;;;;;;;7.63;5.82;;;;;;;28.43;43.65;98169.75;5067945;28;20743;-69
2022/07/20 07:52:26;;;;;;;6.15;5.47;;;;;;;28.57;43.33;98171.34;5069542;28;20215;-69
2022/07/20 07:54:54;;;;;;;6.80;5.55;;;;;;;28.65;43.08;98168.34;5068979;28;20238;-70
2022/07/20 07:57:20;;;;;;;8.43;5.70;;;;;;;28.70;42.79;98169.38;5043380;28;20213;-69
2022/07/20 07:59:47;;;;;;;6.90;5.60;;;;;;;28.86;43.25;98165.28;5040027;28;20224;-69
2022/07/20 08:02:13;;;;;;;7.07;5.70;;;;;;;29.01;42.68;98169.38;5052736;28;20239;-69
2022/07/20 08:04:40;;;;;;;7.60;5.50;;;;;;;29.17;42.83;98162.56;5053983;28;20227;-69
2022/07/20 08:07:07;;;;;;;8.07;5.90;;;;;;;29.31;42.14;98169.56;5053987;28;20222;-69
2022/07/20 08:09:33;;;;;;;7.22;6.15;;;;;;;29.40;41.91;98166.31;5053956;28;20236;-69
2022/07/20 08:12:01;;;;;;;7.60;5.63;;;;;;;29.52;41.99;98164.56;5053744;28;20689;-69
2022/07/20 08:14:27;;;;;;;9.55;6.10;;;;;;;29.65;40.67;98167.16;5053681;28;20569;-69
2022/07/20 08:16:54;;;;;;;9.27;5.88;;;;;;;29.72;40.50;98169.81;5053488;28;20208;-69
2022/07/20 08:19:20;;;;;;;6.80;5.88;;;;;;;29.87;40.67;98175.72;5053575;28;20220;-69
2022/07/20 08:21:47;;;;;;;7.68;5.80;;;;;;;29.94;40.09;98171.88;5053592;28;20239;-68
2022/07/20 08:24:16;;;;;;;6.60;5.85;;;;;;;30.16;41.93;98172.25;5053710;28;20212;-69
2022/07/20 08:26:43;;;;;;;7.43;6.03;;;;;;;30.24;40.79;98166.50;5053411;28;20213;-69
2022/07/20 08:29:11;;;;;;;6.88;5.90;;;;;;;30.29;40.24;98169.38;5051887;28;20291;-69
2022/07/20 08:31:37;;;;;;;8.73;5.70;;;;;;;30.33;39.85;98168.69;5053511;28;20216;-70
2022/07/20 08:34:04;;;;;;;6.63;5.93;;;;;;;30.43;40.69;98174.44;5053335;28;20300;-69
2022/07/20 08:36:30;;;;;;;7.63;5.72;;;;;;;30.50;39.78;98166.97;5053173;28;20219;-69
2022/07/20 08:38:57;;;;;;;9.55;5.95;;;;;;;30.60;39.96;98169.16;5053138;28;20685;-69
2022/07/20 08:41:25;;;;;;;12.05;6.30;;;;;;;30.74;40.09;98176.97;5053521;28;20212;-69
2022/07/20 08:43:51;;;;;;;7.95;5.75;;;;;;;30.79;39.25;98178.97;5053110;28;20216;-69
2022/07/20 08:46:22;;;;;;;6.80;5.50;;;;;;;30.82;38.49;98175.81;5053209;28;20226;-70
2022/07/20 08:48:50;;;;;;;7.07;6.03;;;;;;;30.95;39.50;98181.06;5053116;28;20212;-70
2022/07/20 08:51:17;;;;;;;9.00;6.32;;;;;;;31.11;39.54;98180.41;5052209;28;20244;-69
2022/07/20 08:53:43;;;;;;;7.47;5.82;;;;;;;31.11;37.94;98174.94;5053213;28;20574;-68
2022/07/20 08:56:11;;;;;;;8.90;5.93;;;;;;;31.15;38.28;98174.22;5051176;28;20226;-68
2022/07/20 08:58:37;;;;;;;6.80;5.88;;;;;;;31.22;37.14;98174.97;5053130;28;20216;-69
2022/07/20 09:01:05;;;;;;;7.45;5.97;;;;;;;31.33;37.13;98176.03;5052836;28;20215;-68
2022/07/20 09:03:33;;;;;;;8.05;5.53;;;;;;;31.44;36.68;98183.44;5051810;28;20219;-68
2022/07/20 09:06:05;;;;;;;6.00;5.43;;;;;;;31.61;36.22;98184.41;5050440;28;20693;-68
2022/07/20 09:08:32;;;;;;;7.95;5.60;;;;;;;31.69;35.68;98181.28;5049717;28;20212;-68
2022/07/20 09:11:01;;;;;;;8.38;6.03;;;;;;;31.64;35.09;98182.00;5052537;28;20235;-68
2022/07/20 09:13:29;;;;;;;9.65;6.38;;;;;;;31.76;35.99;98182.03;5052799;28;20215;-68
2022/07/20 09:15:57;;;;;;;8.20;5.95;;;;;;;31.78;36.20;98183.47;5051932;28;20208;-69
2022/07/20 09:18:25;;;;;;;8.95;6.30;;;;;;;31.81;35.44;98182.16;5050287;28;20222;-69
2022/07/20 09:20:55;;;;;;;7.82;6.45;;;;;;;31.92;35.38;98184.03;5051408;28;20244;-69
2022/07/20 09:23:23;;;;;;;9.05;6.43;;;;;;;32.06;36.24;98180.81;5050189;28;20219;-67
2022/07/20 09:25:52;;;;;;;6.47;5.88;;;;;;;32.21;34.07;98180.31;5050302;28;20220;-68
2022/07/20 09:28:19;;;;;;;8.45;6.20;;;;;;;32.26;33.76;98169.50;5038096;28;20592;-69
2022/07/20 09:30:54;;;;;;;8.52;5.60;;;;;;;32.47;32.45;98183.38;5051674;28;20235;-68
2022/07/20 09:33:26;;;;;;;8.00;5.40;;;;;;;32.51;31.51;98179.03;5064539;28;20217;-68
2022/07/20 09:35:54;;;;;;;7.85;5.15;;;;;;;32.61;32.96;98175.69;5070048;28;20219;-68
2022/07/20 09:38:30;;;;;;;10.18;5.47;;;;;;;32.76;32.35;98181.50;5060943;28;20298;-69
2022/07/20 09:40:57;;;;;;;7.85;5.30;;;;;;;32.90;32.09;98182.84;5071209;28;20211;-68
2022/07/20 09:43:28;;;;;;;7.25;5.22;;;;;;;33.00;31.95;98189.31;5055822;28;20219;-68
2022/07/20 09:45:55;;;;;;;8.48;5.47;;;;;;;33.07;31.59;98184.50;5055703;28;20225;-68
2022/07/20 09:48:24;;;;;;;7.20;5.10;;;;;;;33.16;31.00;98187.69;5069097;28;20211;-69
2022/07/20 09:50:51;;;;;;;7.15;5.10;;;;;;;33.08;31.24;98185.34;5070604;28;20250;-68
2022/07/20 09:53:19;;;;;;;5.93;5.32;;;;;;;33.18;31.62;98180.06;5069511;28;20230;-68
2022/07/20 09:55:45;;;;;;;8.93;5.57;;;;;;;33.22;31.20;98182.06;5040865;28;20212;-69
2022/07/20 09:58:12;;;;;;;6.45;5.00;;;;;;;33.21;31.46;98179.56;5070679;28;20600;-68
2022/07/20 10:00:39;;;;;;;6.43;5.35;;;;;;;33.12;31.32;98173.66;5070398;28;20215;-68
2022/07/20 10:03:06;;;;;;;8.75;5.47;;;;;;;33.06;31.54;98171.09;5070123;28;20662;-68
2022/07/20 10:05:36;;;;;;;8.27;5.72;;;;;;;33.21;32.10;98171.34;5069936;28;20442;-68
2022/07/20 10:08:04;;;;;;;7.38;5.40;;;;;;;33.14;31.52;98167.94;5061853;28;20207;-68
2022/07/20 10:10:33;;;;;;;9.55;5.45;;;;;;;33.27;31.50;98167.63;5070561;28;20242;-68
2022/07/20 10:13:00;;;;;;;5.97;5.32;;;;;;;33.22;31.25;98175.72;5069438;28;20207;-69
2022/07/20 10:15:34;;;;;;;6.32;5.72;;;;;;;33.25;32.09;98164.28;5068820;28;20212;-68
2022/07/20 10:18:01;;;;;;;5.85;5.30;;;;;;;33.34;31.47;98171.03;5070627;28;20229;-67
2022/07/20 10:20:35;;;;;;;5.85;5.35;;;;;;;33.30;31.47;98158.94;5070318;28;20241;-68
2022/07/20 10:23:25;;;;;;;6.43;5.40;;;;;;;33.46;31.79;98163.56;5069357;28;20215;-68
2022/07/20 10:25:53;;;;;;;6.75;6.07;;;;;;;33.50;31.91;98167.47;5070656;28;20215;-68
2022/07/20 10:28:28;;;;;;;6.60;5.63;;;;;;;33.63;31.51;98165.22;5070604;28;20216;-68
2022/07/20 10:30:57;;;;;;;6.13;5.53;;;;;;;33.66;31.72;98163.84;5069229;28;20334;-68
2022/07/20 10:33:26;;;;;;;7.80;5.82;;;;;;;33.56;31.17;98171.94;5065849;28;20302;-67
2022/07/20 10:36:41;;;;;;;7.00;5.57;;;;;;;33.74;30.53;98164.25;5066321;28;20207;-66
2022/07/20 10:38:40;;;;;;;8.18;5.75;;;;;;;33.75;30.83;98165.09;5062828;28;20218;-66
2022/07/20 10:44:29;;;;;;;6.10;5.38;;;;;;;33.87;29.92;98174.94;5058587;28;20697;-68
2022/07/20 10:46:55;;;;;;;7.90;5.70;;;;;;;33.81;30.03;98175.09;5048424;28;20275;-67
2022/07/20 10:49:59;;;;;;;5.70;5.20;;;;;;;33.74;30.93;98174.41;5070277;28;20215;-66
2022/07/20 10:52:30;;;;;;;7.85;6.07;;;;;;;33.75;30.91;98170.59;5065476;28;20218;-67
2022/07/20 10:54:57;;;;;;;8.00;5.43;;;;;;;33.87;30.14;98171.34;5069986;28;20695;-67
2022/07/20 10:57:25;;;;;;;6.32;5.63;;;;;;;33.85;30.36;98173.53;5070214;28;20215;-67
2022/07/20 11:00:16;;;;;;;6.05;5.50;;;;;;;33.87;30.96;98169.44;5067667;28;20226;-66
2022/07/20 11:02:43;;;;;;;6.10;5.32;;;;;;;33.85;31.08;98168.03;5050070;28;20215;-67
2022/07/20 11:05:20;;;;;;;6.25;5.63;;;;;;;33.86;31.07;98169.69;5070088;28;20581;-67
2022/07/20 11:07:46;;;;;;;6.47;5.88;;;;;;;34.08;30.54;98173.28;5067180;28;20734;-68
2022/07/20 11:10:22;;;;;;;6.32;5.55;;;;;;;33.97;30.61;98168.75;5066078;28;20318;-70
2022/07/20 11:13:02;;;;;;;6.18;5.20;;;;;;;33.86;30.87;98166.94;5070208;28;20215;-69
2022/07/20 11:15:40;;;;;;;8.05;5.57;;;;;;;33.85;30.98;98165.28;5072441;28;20233;-70
2022/07/20 11:18:08;;;;;;;6.97;5.70;;;;;;;33.91;31.66;98158.81;5070202;28;20212;-70
2022/07/20 11:20:34;;;;;;;6.60;5.40;;;;;;;34.15;31.43;98154.75;5072672;28;20601;-68
2022/07/20 11:23:03;;;;;;;8.27;5.55;;;;;;;34.24;30.80;98153.19;5073010;28;20217;-67
2022/07/20 11:25:45;;;;;;;8.32;5.65;;;;;;;34.24;31.13;98158.69;5066132;28;20212;-67
2022/07/20 11:28:13;;;;;;;5.97;5.50;;;;;;;34.41;30.36;98154.78;5045038;28;20694;-67
2022/07/20 11:30:41;;;;;;;5.88;5.32;;;;;;;34.55;30.20;98149.75;5058357;28;20709;-68
2022/07/20 11:33:07;;;;;;;6.65;6.05;;;;;;;34.55;29.73;98144.25;5060373;28;20683;-67
2022/07/20 11:35:34;;;;;;;6.45;5.85;;;;;;;34.36;30.34;98145.69;5062227;28;20215;-67
2022/07/20 11:38:00;;;;;;;6.28;5.65;;;;;;;34.43;30.78;98146.31;5057623;28;20216;-68
2022/07/20 11:40:27;;;;;;;6.47;5.80;;;;;;;34.48;31.00;98138.16;5059293;28;20286;-66
2022/07/20 11:43:08;;;;;;;6.45;5.95;;;;;;;34.49;30.75;98142.53;5060526;28;20216;-66